This is the latest recevied weather packets stored in our database for station/object KS4XQ. If no packets are shown the sender has not sent any weather packets the latest 10 day(s).
| Time | Temp. | Humidity | Pressure | Rain* | Wind** | Luminosity | Snow |
|---|---|---|---|---|---|---|---|
| 1777949103 | 15° C | 68% | 1015.5 hPa | 0 mm | - | - | - |
| 1777945803 | 16.11° C | 61% | 1014.9 hPa | 0 mm | - | - | - |
| 1777942806 | 18.33° C | 57% | 1014.5 hPa | 0 mm | - | - | - |
| 1777938306 | 21.67° C | 51% | 1014.1 hPa | 0 mm | - | - | - |
| 1777937103 | 22.22° C | 49% | 1013.9 hPa | 0 mm | - | - | - |
| 1777936503 | 22.22° C | 46% | 1014 hPa | 0 mm | - | - | - |
| 1777935604 | 22.78° C | 44% | 1013.9 hPa | 0 mm | - | - | - |
| 1777934404 | 23.33° C | 41% | 1013.9 hPa | 0 mm | - | - | - |
| 1777924201 | 26.67° C | 31% | 1014.3 hPa | 0 mm | - | - | - |
| 1777914005 | 23.89° C | 38% | 1016.4 hPa | 0 mm | - | - | - |
| 1777912502 | 22.78° C | 38% | 1016.7 hPa | 0 mm | - | - | - |
| 1777911002 | 23.33° C | 39% | 1017 hPa | 0 mm | - | - | - |
| 1777910404 | 22.78° C | 39% | 1017.3 hPa | 0 mm | - | - | - |
| 1777910102 | 22.78° C | 42% | 1017.2 hPa | 0 mm | - | - | - |
| 1777905302 | 17.22° C | 60% | 1017.6 hPa | 0 mm | - | - | - |
| 1777904403 | 15.56° C | 67% | 1017.7 hPa | 0 mm | - | - | - |
| 1777899300 | 7.78° C | 96% | 1017.3 hPa | 0 mm | - | - | - |
| 1777896600 | 5.56° C | 96% | 1017.4 hPa | 0 mm | - | - | - |
| 1777896300 | 5° C | 95% | 1017.3 hPa | 0 mm | - | - | - |
| 1777896005 | 5° C | 93% | 1017.1 hPa | 0 mm | - | - | - |
| 1777895700 | 4.44° C | 93% | 1017.1 hPa | 0 mm | - | - | - |
| 1777894201 | 4.44° C | 93% | 1017.3 hPa | 0 mm | - | - | - |
| 1777891202 | 4.44° C | 89% | 1016.7 hPa | 0 mm | - | - | - |
| 1777884001 | 5.56° C | 87% | 1016.7 hPa | 0 mm | - | - | - |
| 1777883401 | 5.56° C | 86% | 1016.4 hPa | 0 mm | - | - | - |
* Rain latest hour (hover to see other rain measurements)
** Current wind speed in m/s (hover to see current wind gust speed)